createdAt,value
2018-04-07T00:00:57.419Z,5.90
2018-04-07T00:03:24.964Z,5.90
2018-04-07T00:05:52.557Z,6.67
2018-04-07T00:08:20.112Z,6.17
2018-04-07T00:10:47.717Z,6.63
2018-04-07T00:13:15.302Z,6.50
2018-04-07T00:15:42.835Z,6.87
2018-04-07T00:18:10.482Z,6.20
2018-04-07T00:20:38.286Z,6.23
2018-04-07T00:23:05.841Z,6.10
2018-04-07T00:25:33.402Z,6.47
2018-04-07T00:28:00.971Z,6.73
2018-04-07T00:30:28.827Z,7.00
2018-04-07T00:32:56.398Z,7.23
2018-04-07T00:35:23.967Z,6.30
2018-04-07T00:37:51.562Z,6.67
2018-04-07T00:40:19.110Z,6.80
2018-04-07T00:42:46.662Z,6.57
2018-04-07T00:45:14.607Z,6.73
2018-04-07T00:47:42.162Z,6.30
2018-04-07T00:50:09.717Z,6.00
2018-04-07T00:52:48.938Z,6.37
2018-04-07T00:55:16.515Z,6.70
2018-04-07T00:57:44.079Z,6.57
2018-04-07T01:00:11.626Z,6.47
2018-04-07T01:02:39.223Z,6.70
2018-04-07T01:05:06.767Z,6.93
2018-04-07T01:07:34.786Z,6.47
2018-04-07T01:10:02.333Z,6.57
2018-04-07T01:12:29.928Z,6.70
2018-04-07T01:14:57.458Z,6.13
2018-04-07T01:17:25.070Z,7.10
2018-04-07T01:19:53.007Z,6.70
2018-04-07T01:22:20.619Z,6.93
2018-04-07T01:24:48.236Z,6.77
2018-04-07T01:27:15.801Z,6.17
2018-04-07T01:29:43.390Z,6.63
2018-04-07T01:32:10.999Z,5.83
2018-04-07T01:34:38.575Z,6.73
2018-04-07T01:37:06.117Z,7.20
2018-04-07T01:39:33.655Z,7.70
2018-04-07T01:42:01.200Z,7.37
2018-04-07T01:44:28.818Z,6.73
2018-04-07T01:46:56.375Z,7.77
2018-04-07T01:49:24.360Z,7.00
2018-04-07T01:51:51.926Z,7.80
2018-04-07T01:54:19.534Z,6.80
2018-04-07T01:56:47.118Z,7.60
2018-04-07T01:59:15.119Z,7.10
2018-04-07T02:01:42.676Z,7.27
2018-04-07T02:04:10.261Z,7.50
2018-04-07T02:06:37.796Z,6.80
2018-04-07T02:09:06.214Z,6.60
2018-04-07T02:11:33.802Z,6.87
2018-04-07T02:14:01.442Z,7.50
2018-04-07T02:16:29.053Z,7.17
2018-04-07T02:18:56.625Z,7.67
2018-04-07T02:21:24.154Z,7.90
2018-04-07T02:23:51.768Z,7.13
2018-04-07T02:26:19.387Z,8.03
2018-04-07T02:28:46.976Z,7.53
2018-04-07T02:31:14.537Z,7.33
2018-04-07T02:33:42.141Z,7.30
2018-04-07T02:36:09.696Z,7.87
2018-04-07T02:38:37.263Z,7.03
2018-04-07T02:41:04.813Z,6.27
2018-04-07T02:43:32.391Z,6.93
2018-04-07T02:45:59.971Z,7.13
2018-04-07T02:48:27.542Z,7.63
2018-04-07T02:50:55.108Z,7.67
2018-04-07T02:53:22.662Z,6.50
2018-04-07T02:55:50.244Z,7.33
2018-04-07T02:58:17.811Z,7.23
2018-04-07T03:00:45.432Z,6.60
2018-04-07T03:03:13.025Z,7.00
2018-04-07T03:05:40.610Z,7.60
2018-04-07T03:08:08.142Z,7.73
2018-04-07T03:10:35.723Z,7.87
2018-04-07T03:13:03.274Z,8.20
2018-04-07T03:15:30.843Z,7.07
2018-04-07T03:17:58.467Z,7.80
2018-04-07T03:20:26.069Z,7.33
2018-04-07T03:22:53.605Z,7.20
2018-04-07T03:25:21.158Z,7.83
2018-04-07T03:27:48.742Z,7.37
2018-04-07T03:30:16.333Z,7.67
2018-04-07T03:32:43.892Z,8.30
2018-04-07T03:35:11.454Z,7.80
2018-04-07T03:37:38.999Z,7.17
2018-04-07T03:40:06.572Z,7.63
2018-04-07T03:42:34.149Z,7.50
2018-04-07T03:45:01.683Z,7.97
2018-04-07T03:47:29.256Z,7.43
2018-04-07T03:49:56.818Z,7.27
2018-04-07T03:52:24.448Z,7.17
2018-04-07T03:54:52.009Z,7.57
2018-04-07T03:57:19.599Z,6.93
2018-04-07T03:59:47.142Z,7.00
2018-04-07T04:02:14.786Z,7.03
2018-04-07T04:04:42.386Z,8.27
2018-04-07T04:07:10.383Z,6.63
2018-04-07T04:09:37.943Z,7.77
2018-04-07T04:12:05.519Z,8.87
2018-04-07T04:14:33.085Z,7.83
2018-04-07T04:17:00.656Z,9.00
2018-04-07T04:19:28.203Z,8.13
2018-04-07T04:21:55.769Z,8.60
2018-04-07T04:24:23.295Z,6.80
2018-04-07T04:26:50.906Z,7.80
2018-04-07T04:29:18.460Z,8.47
2018-04-07T04:31:46.048Z,8.17
2018-04-07T04:34:13.629Z,8.00
2018-04-07T04:36:41.251Z,7.10
2018-04-07T04:39:08.822Z,7.53
2018-04-07T04:41:36.808Z,7.77
2018-04-07T04:44:04.358Z,7.53
2018-04-07T04:46:31.979Z,7.17
2018-04-07T04:48:59.553Z,7.53
2018-04-07T04:51:27.132Z,7.27
2018-04-07T04:53:54.729Z,7.37
2018-04-07T04:56:22.272Z,7.10
2018-04-07T04:58:49.865Z,7.30
2018-04-07T05:01:17.435Z,7.10
2018-04-07T05:03:45.009Z,8.10
2018-04-07T05:06:12.968Z,7.03
2018-04-07T05:08:40.563Z,7.50
2018-04-07T05:11:08.359Z,7.43
2018-04-07T05:13:35.932Z,7.47
2018-04-07T05:16:03.494Z,7.80
2018-04-07T05:18:31.116Z,7.53
2018-04-07T05:20:58.928Z,7.50
2018-04-07T05:23:26.555Z,7.50
2018-04-07T05:25:54.128Z,7.47
2018-04-07T05:28:21.724Z,7.83
2018-04-07T05:30:49.647Z,6.40
2018-04-07T05:33:17.272Z,6.70
2018-04-07T05:35:44.870Z,6.70
2018-04-07T05:38:12.444Z,6.83
2018-04-07T05:40:39.995Z,6.43
2018-04-07T05:43:07.609Z,6.00
2018-04-07T05:45:35.204Z,6.03
2018-04-07T05:48:02.901Z,5.63
2018-04-07T05:50:30.459Z,5.57
2018-04-07T05:52:58.067Z,5.57
2018-04-07T05:55:25.596Z,6.03
2018-04-07T05:57:53.178Z,5.70
2018-04-07T06:00:20.751Z,6.60
2018-04-07T06:02:49.192Z,5.50
2018-04-07T06:05:16.782Z,6.30
2018-04-07T06:07:44.357Z,6.10
2018-04-07T06:10:11.948Z,6.07
2018-04-07T06:12:39.540Z,5.27
2018-04-07T06:15:07.123Z,5.23
2018-04-07T06:17:34.654Z,5.60
2018-04-07T06:20:02.251Z,6.10
2018-04-07T06:22:29.816Z,5.40
2018-04-07T06:24:57.350Z,5.43
2018-04-07T06:27:24.887Z,5.67
2018-04-07T06:29:52.468Z,5.80
2018-04-07T06:32:20.030Z,6.70
2018-04-07T06:34:47.595Z,6.33
2018-04-07T06:37:15.136Z,5.40
2018-04-07T06:39:42.732Z,5.90
2018-04-07T06:42:10.328Z,6.47
2018-04-07T06:44:37.949Z,6.20
2018-04-07T06:47:05.524Z,6.17
2018-04-07T06:49:33.108Z,6.10
2018-04-07T06:52:00.667Z,5.60
2018-04-07T06:54:28.252Z,5.83
2018-04-07T06:56:55.770Z,5.63
2018-04-07T06:59:23.380Z,5.80
2018-04-07T07:01:50.927Z,5.87
2018-04-07T07:04:18.526Z,6.67
2018-04-07T07:06:46.072Z,6.27
2018-04-07T07:09:13.628Z,7.40
2018-04-07T07:11:41.227Z,6.87
2018-04-07T07:14:08.833Z,7.93
2018-04-07T07:16:36.391Z,8.00
2018-04-07T07:19:03.966Z,8.27
2018-04-07T07:21:31.528Z,7.97
2018-04-07T07:23:59.081Z,8.40
2018-04-07T07:26:26.668Z,8.17
2018-04-07T07:28:54.224Z,8.67
2018-04-07T07:31:21.781Z,7.87
2018-04-07T07:33:49.371Z,8.10
2018-04-07T07:36:16.976Z,8.30
2018-04-07T07:38:44.567Z,8.57
2018-04-07T07:41:12.166Z,8.40
2018-04-07T07:43:39.702Z,8.77
2018-04-07T07:46:07.237Z,7.87
2018-04-07T07:48:35.160Z,8.27
2018-04-07T07:51:02.725Z,8.33
2018-04-07T07:53:30.308Z,7.53
2018-04-07T07:55:58.246Z,7.80
2018-04-07T07:58:25.805Z,5.97
2018-04-07T08:00:53.390Z,6.10
2018-04-07T08:03:21.351Z,5.53
2018-04-07T08:05:48.970Z,5.83
2018-04-07T08:08:16.518Z,4.90
2018-04-07T08:10:44.099Z,5.60
2018-04-07T08:13:11.670Z,5.77
2018-04-07T08:15:39.364Z,5.40
2018-04-07T08:18:07.307Z,5.37
2018-04-07T08:20:34.920Z,6.07
2018-04-07T08:23:02.467Z,6.03
2018-04-07T08:25:30.059Z,6.23
2018-04-07T08:27:57.601Z,5.93
2018-04-07T08:30:25.231Z,6.43
2018-04-07T08:32:52.784Z,5.80
2018-04-07T08:35:20.390Z,6.60
2018-04-07T08:37:47.993Z,7.27
2018-04-07T08:40:15.626Z,6.03
2018-04-07T08:42:43.178Z,6.23
2018-04-07T08:45:10.724Z,6.53
2018-04-07T08:47:38.339Z,5.90
2018-04-07T08:50:05.927Z,6.43
2018-04-07T08:52:33.493Z,6.07
2018-04-07T08:55:01.034Z,6.13
2018-04-07T08:57:28.649Z,5.67
2018-04-07T08:59:56.190Z,6.33
2018-04-07T09:02:23.755Z,6.40
2018-04-07T09:04:51.342Z,5.87
2018-04-07T09:07:19.314Z,6.13
2018-04-07T09:09:46.914Z,6.50
2018-04-07T09:12:14.513Z,7.10
2018-04-07T09:14:42.112Z,6.77
2018-04-07T09:17:09.693Z,6.57
2018-04-07T09:19:37.253Z,6.07
2018-04-07T09:22:04.868Z,6.70
2018-04-07T09:24:32.436Z,6.50
2018-04-07T09:27:00.073Z,6.40
2018-04-07T09:29:27.670Z,6.53
2018-04-07T09:31:55.514Z,6.87
2018-04-07T09:34:23.074Z,7.37
2018-04-07T09:36:50.646Z,6.73
2018-04-07T09:39:18.192Z,7.03
2018-04-07T09:41:45.754Z,6.70
2018-04-07T09:44:13.325Z,7.67
2018-04-07T09:46:40.878Z,7.23
2018-04-07T09:49:08.492Z,7.03
2018-04-07T09:51:36.119Z,7.00
2018-04-07T09:54:03.744Z,7.33
2018-04-07T09:56:31.336Z,6.77
2018-04-07T09:58:58.871Z,6.77
2018-04-07T10:01:29.298Z,6.13
2018-04-07T10:03:56.896Z,7.40
2018-04-07T10:06:24.445Z,6.80
2018-04-07T10:08:52.014Z,7.20
2018-04-07T10:11:19.572Z,7.60
2018-04-07T10:13:47.117Z,7.60
2018-04-07T10:16:14.724Z,7.93
2018-04-07T10:18:42.324Z,7.00
2018-04-07T10:21:09.852Z,7.57
2018-04-07T10:23:37.455Z,6.47
2018-04-07T10:26:05.320Z,7.50
2018-04-07T10:28:32.938Z,7.70
2018-04-07T10:31:00.515Z,6.73
2018-04-07T10:33:28.127Z,7.83
2018-04-07T10:35:55.704Z,8.47
2018-04-07T10:38:23.672Z,7.50
2018-04-07T10:40:51.194Z,7.97
2018-04-07T10:43:18.758Z,7.93
2018-04-07T10:45:46.307Z,8.23
2018-04-07T10:48:13.933Z,8.23
2018-04-07T10:50:41.479Z,8.40
2018-04-07T10:53:09.018Z,8.67
2018-04-07T10:55:36.604Z,8.20
2018-04-07T10:58:04.187Z,9.20
2018-04-07T11:00:31.820Z,7.43
2018-04-07T11:02:59.391Z,8.07
2018-04-07T11:05:26.922Z,7.70
2018-04-07T11:07:54.494Z,8.13
2018-04-07T11:10:22.049Z,8.00
2018-04-07T11:12:49.625Z,7.80
2018-04-07T11:15:17.220Z,7.70
2018-04-07T11:17:44.791Z,7.20
2018-04-07T11:20:12.337Z,6.93
2018-04-07T11:22:39.924Z,6.93
2018-04-07T11:25:07.539Z,8.23
2018-04-07T11:27:35.158Z,7.33
2018-04-07T11:30:02.715Z,7.20
2018-04-07T11:32:30.420Z,7.90
2018-04-07T11:34:58.101Z,8.20
2018-04-07T11:37:25.687Z,7.80
2018-04-07T11:39:53.273Z,7.27
2018-04-07T11:42:20.846Z,6.47
2018-04-07T11:44:48.477Z,6.27
2018-04-07T11:47:16.019Z,6.63
2018-04-07T11:49:43.608Z,6.57
2018-04-07T11:52:11.148Z,6.47
2018-04-07T11:54:38.782Z,6.23
2018-04-07T11:57:06.742Z,6.17
2018-04-07T11:59:34.714Z,6.67
2018-04-07T12:02:02.699Z,6.30
2018-04-07T12:04:30.272Z,6.80
2018-04-07T12:06:57.826Z,7.30
2018-04-07T12:09:25.381Z,7.53
2018-04-07T12:11:52.959Z,7.60
2018-04-07T12:14:20.552Z,6.97
2018-04-07T12:16:48.077Z,6.90
2018-04-07T12:19:15.629Z,6.37
2018-04-07T12:21:43.202Z,6.07
2018-04-07T12:24:10.777Z,6.57
2018-04-07T12:26:38.380Z,6.63
2018-04-07T12:29:06.013Z,6.57
2018-04-07T12:31:33.540Z,7.03
2018-04-07T12:34:01.078Z,6.80
2018-04-07T12:36:28.627Z,7.13
2018-04-07T12:38:56.236Z,6.77
2018-04-07T12:41:23.768Z,6.33
2018-04-07T12:43:51.341Z,6.27
2018-04-07T12:46:18.883Z,6.27
2018-04-07T12:48:46.484Z,5.70
2018-04-07T12:51:14.431Z,6.30
2018-04-07T12:53:43.045Z,5.67
2018-04-07T12:56:10.612Z,5.50
2018-04-07T12:58:38.158Z,5.17
2018-04-07T13:01:05.738Z,5.13
2018-04-07T13:03:33.635Z,5.30
2018-04-07T13:06:01.299Z,5.27
2018-04-07T13:08:28.844Z,5.67
2018-04-07T13:10:56.458Z,6.03
2018-04-07T13:13:24.055Z,6.17
2018-04-07T13:15:51.636Z,6.00
2018-04-07T13:18:19.174Z,7.07
2018-04-07T13:20:46.749Z,5.90
2018-04-07T13:23:14.293Z,4.93
2018-04-07T13:25:41.857Z,5.93
2018-04-07T13:28:09.408Z,5.40
2018-04-07T13:30:36.979Z,5.80
2018-04-07T13:33:04.600Z,5.80
2018-04-07T13:35:32.204Z,5.83
2018-04-07T13:37:59.742Z,5.53
2018-04-07T13:40:27.339Z,5.93
2018-04-07T13:42:54.888Z,5.30
2018-04-07T13:45:22.492Z,6.83
2018-04-07T13:47:50.067Z,6.70
2018-04-07T13:50:17.697Z,6.17
2018-04-07T13:52:45.308Z,7.00
2018-04-07T13:55:12.916Z,8.00
2018-04-07T13:57:40.454Z,7.20
2018-04-07T14:00:08.077Z,7.67
2018-04-07T14:02:35.618Z,6.47
2018-04-07T14:05:03.202Z,7.93
2018-04-07T14:07:30.768Z,7.80
2018-04-07T14:09:58.368Z,6.97
2018-04-07T14:12:26.290Z,7.13
2018-04-07T14:14:53.834Z,6.77
2018-04-07T14:17:21.415Z,7.43
2018-04-07T14:19:48.949Z,7.40
2018-04-07T14:22:16.573Z,7.53
2018-04-07T14:24:44.194Z,7.73
2018-04-07T14:27:11.762Z,6.97
2018-04-07T14:29:39.317Z,7.23
2018-04-07T14:32:06.930Z,8.40
2018-04-07T14:34:34.452Z,6.67
2018-04-07T14:37:02.378Z,5.83
2018-04-07T14:39:29.943Z,5.80
2018-04-07T14:41:57.514Z,5.63
2018-04-07T14:44:25.086Z,7.20
2018-04-07T14:46:52.675Z,6.60
2018-04-07T14:49:20.238Z,5.23
2018-04-07T14:51:47.783Z,5.83
2018-04-07T14:54:15.359Z,5.50
2018-04-07T14:56:42.960Z,5.87
2018-04-07T14:59:10.527Z,6.30
2018-04-07T15:01:38.139Z,5.53
2018-04-07T15:04:05.702Z,6.60
2018-04-07T15:06:33.258Z,5.90
2018-04-07T15:09:01.029Z,5.40
2018-04-07T15:11:28.637Z,5.00
2018-04-07T15:13:56.215Z,5.40
2018-04-07T15:16:23.753Z,4.90
2018-04-07T15:18:51.328Z,4.87
2018-04-07T15:21:18.904Z,4.47
2018-04-07T15:23:46.471Z,5.00
2018-04-07T15:26:14.056Z,4.47
2018-04-07T15:28:41.658Z,4.27
2018-04-07T15:31:09.261Z,4.73
2018-04-07T15:33:37.192Z,4.60
2018-04-07T15:36:04.783Z,4.60
2018-04-07T15:38:32.328Z,4.87
2018-04-07T15:40:59.885Z,4.93
2018-04-07T15:43:27.457Z,4.57
2018-04-07T15:45:55.013Z,4.47
2018-04-07T15:48:22.596Z,4.00
2018-04-07T15:50:50.143Z,4.73
2018-04-07T15:53:17.725Z,4.50
2018-04-07T15:55:45.248Z,3.73
2018-04-07T15:58:12.842Z,3.87
2018-04-07T16:00:40.372Z,4.90
2018-04-07T16:03:07.949Z,4.23
2018-04-07T16:05:35.520Z,4.23
2018-04-07T16:08:03.142Z,4.10
2018-04-07T16:10:30.636Z,3.37
2018-04-07T16:12:58.222Z,3.77
2018-04-07T16:15:26.134Z,3.73
2018-04-07T16:17:54.103Z,5.80
2018-04-07T16:20:21.671Z,7.20
2018-04-07T16:22:49.291Z,7.47
2018-04-07T16:25:16.902Z,8.33
2018-04-07T16:27:44.454Z,7.80
2018-04-07T16:30:11.997Z,8.20
2018-04-07T16:32:39.573Z,7.83
2018-04-07T16:35:07.224Z,7.80
2018-04-07T16:37:34.852Z,6.93
2018-04-07T16:40:02.479Z,7.10
2018-04-07T16:42:30.526Z,8.00
2018-04-07T16:44:58.109Z,5.93
2018-04-07T16:47:25.709Z,6.77
2018-04-07T16:49:53.251Z,5.87
2018-04-07T16:52:20.841Z,5.60
2018-04-07T16:54:48.458Z,5.03
2018-04-07T16:57:16.437Z,5.30
2018-04-07T16:59:44.238Z,5.47
2018-04-07T17:02:11.950Z,4.83
2018-04-07T17:04:40.099Z,5.03
2018-04-07T17:07:07.701Z,4.93
2018-04-07T17:09:35.694Z,4.50
2018-04-07T17:12:03.711Z,4.70
2018-04-07T17:14:31.340Z,5.10
2018-04-07T17:16:58.910Z,4.90
2018-04-07T17:19:26.720Z,4.57
2018-04-07T17:21:54.714Z,4.60
2018-04-07T17:24:22.629Z,5.97
2018-04-07T17:26:50.705Z,7.67
2018-04-07T17:29:18.688Z,6.07
2018-04-07T17:31:46.517Z,5.80
2018-04-07T17:34:14.533Z,5.63
2018-04-07T17:36:43.246Z,7.67
2018-04-07T17:39:10.962Z,8.37
2018-04-07T17:41:38.532Z,35.90
2018-04-07T17:44:06.327Z,21.03
2018-04-07T17:46:33.905Z,11.00
2018-04-07T17:49:06.237Z,8.20
2018-04-07T17:51:29.562Z,7.30
2018-04-07T17:53:57.226Z,7.03
2018-04-07T17:56:24.812Z,5.60
2018-04-07T17:58:52.400Z,5.33
2018-04-07T18:01:20.069Z,6.20
2018-04-07T18:03:47.748Z,5.70
2018-04-07T18:06:15.869Z,6.00
2018-04-07T18:08:43.430Z,5.33
2018-04-07T18:11:11.021Z,5.23
2018-04-07T18:13:38.709Z,5.47
2018-04-07T18:16:16.756Z,7.37
2018-04-07T18:18:44.383Z,7.13
2018-04-07T18:21:11.951Z,9.20
2018-04-07T18:23:39.504Z,7.20
2018-04-07T18:26:07.076Z,7.10
2018-04-07T18:28:34.636Z,6.43
2018-04-07T18:31:02.253Z,6.17
2018-04-07T18:33:29.832Z,6.00
2018-04-07T18:35:57.484Z,6.37
2018-04-07T18:38:25.129Z,5.60
2018-04-07T18:40:53.082Z,5.30
2018-04-07T18:43:20.617Z,4.77
2018-04-07T18:45:48.179Z,4.40
2018-04-07T18:48:15.694Z,7.23
2018-04-07T18:50:43.274Z,7.37
2018-04-07T18:53:10.819Z,6.90
2018-04-07T18:55:38.376Z,6.43
2018-04-07T18:58:05.948Z,6.43
2018-04-07T19:00:33.541Z,7.30
2018-04-07T19:03:01.107Z,6.63
2018-04-07T19:05:28.728Z,6.63
2018-04-07T19:07:56.331Z,6.40
2018-04-07T19:10:23.917Z,5.67
2018-04-07T19:12:51.516Z,6.13
2018-04-07T19:15:19.152Z,8.50
2018-04-07T19:17:46.696Z,8.77
2018-04-07T19:20:14.310Z,5.83
2018-04-07T19:22:41.927Z,5.27
2018-04-07T19:25:09.569Z,4.93
2018-04-07T19:27:37.168Z,4.90
2018-04-07T19:30:04.728Z,4.67
2018-04-07T19:32:32.374Z,5.37
2018-04-07T19:35:00.001Z,5.00
2018-04-07T19:37:28.165Z,5.10
2018-04-07T19:39:55.782Z,4.90
2018-04-07T19:42:23.686Z,5.70
2018-04-07T19:44:51.268Z,5.27
2018-04-07T19:47:18.854Z,4.80
2018-04-07T19:49:46.449Z,4.87
2018-04-07T19:52:14.065Z,5.23
2018-04-07T19:54:41.624Z,5.90
2018-04-07T19:57:09.273Z,5.77
2018-04-07T19:59:36.817Z,5.77
2018-04-07T20:02:05.526Z,5.53
2018-04-07T20:04:33.143Z,6.07
2018-04-07T20:07:01.156Z,5.60
2018-04-07T20:09:28.714Z,5.70
2018-04-07T20:11:56.288Z,5.17
2018-04-07T20:14:23.865Z,5.23
2018-04-07T20:16:51.500Z,5.10
2018-04-07T20:19:19.058Z,6.07
2018-04-07T20:21:46.632Z,6.73
2018-04-07T20:24:14.188Z,6.63
2018-04-07T20:26:41.735Z,5.83
2018-04-07T20:29:09.279Z,6.20
2018-04-07T20:31:36.888Z,6.60
2018-04-07T20:34:04.506Z,5.97
2018-04-07T20:36:32.058Z,6.47
2018-04-07T20:38:59.631Z,5.73
2018-04-07T20:41:27.199Z,5.90
2018-04-07T20:43:54.767Z,5.83
2018-04-07T20:46:22.411Z,6.17
2018-04-07T20:48:50.015Z,5.87
2018-04-07T20:51:17.959Z,5.43
2018-04-07T20:53:45.540Z,6.60
2018-04-07T20:56:13.165Z,6.03
2018-04-07T20:58:40.800Z,6.10
2018-04-07T21:01:08.374Z,6.30
2018-04-07T21:03:35.936Z,6.40
2018-04-07T21:06:03.534Z,6.83
2018-04-07T21:08:31.520Z,6.87
2018-04-07T21:10:59.080Z,7.47
2018-04-07T21:13:26.697Z,7.50
2018-04-07T21:15:54.291Z,7.10
2018-04-07T21:18:24.020Z,7.37
2018-04-07T21:20:51.602Z,7.37
2018-04-07T21:23:19.260Z,7.90
2018-04-07T21:25:46.844Z,7.97
2018-04-07T21:28:14.456Z,7.43
2018-04-07T21:30:42.026Z,6.40
2018-04-07T21:33:10.696Z,6.80
2018-04-07T21:35:38.308Z,6.40
2018-04-07T21:38:05.902Z,6.07
2018-04-07T21:40:33.567Z,6.30
2018-04-07T21:43:01.238Z,6.20
2018-04-07T21:45:28.817Z,6.20
2018-04-07T21:47:56.514Z,6.33
2018-04-07T21:50:24.066Z,7.47
2018-04-07T21:52:51.640Z,5.97
2018-04-07T21:55:25.978Z,5.90
2018-04-07T21:57:53.577Z,6.30
2018-04-07T22:00:21.201Z,7.40
2018-04-07T22:02:48.760Z,7.33
2018-04-07T22:05:16.336Z,7.07
2018-04-07T22:07:43.889Z,6.70
2018-04-07T22:10:11.869Z,6.90
2018-04-07T22:12:39.657Z,6.17
2018-04-07T22:15:07.300Z,5.93
2018-04-07T22:17:34.842Z,5.80
2018-04-07T22:20:02.574Z,6.20
2018-04-07T22:22:30.125Z,6.20
2018-04-07T22:24:57.759Z,6.33
2018-04-07T22:27:25.453Z,6.40
2018-04-07T22:29:54.395Z,6.47
2018-04-07T22:32:22.072Z,6.57
2018-04-07T22:34:49.662Z,6.10
2018-04-07T22:37:17.216Z,5.97
2018-04-07T22:39:44.810Z,5.70
2018-04-07T22:42:12.346Z,5.63
2018-04-07T22:44:39.907Z,5.33
2018-04-07T22:47:07.493Z,6.23
2018-04-07T22:49:35.072Z,5.70
2018-04-07T22:52:02.632Z,5.87
2018-04-07T22:54:30.200Z,5.87
2018-04-07T22:56:57.746Z,5.87
2018-04-07T22:59:25.333Z,6.43
2018-04-07T23:01:52.958Z,5.80
2018-04-07T23:04:20.548Z,6.10
2018-04-07T23:06:48.151Z,7.60
2018-04-07T23:09:15.692Z,7.80
2018-04-07T23:11:43.246Z,7.20
2018-04-07T23:14:10.794Z,8.70
2018-04-07T23:16:38.372Z,8.30
2018-04-07T23:19:06.026Z,6.83
2018-04-07T23:21:33.605Z,5.80
2018-04-07T23:24:01.176Z,5.80
2018-04-07T23:26:28.777Z,5.77
2018-04-07T23:28:56.352Z,5.40
2018-04-07T23:31:23.910Z,4.97
2018-04-07T23:33:51.474Z,5.10
2018-04-07T23:36:19.065Z,5.13
2018-04-07T23:38:46.613Z,5.10
2018-04-07T23:41:14.411Z,4.83
2018-04-07T23:43:41.977Z,5.67
2018-04-07T23:46:09.565Z,5.50
2018-04-07T23:48:37.148Z,5.53
2018-04-07T23:51:04.727Z,5.30
2018-04-07T23:53:32.675Z,5.70
2018-04-07T23:56:00.245Z,5.90
2018-04-07T23:58:27.826Z,6.20
